Time;durP1;ratioP1;P1;durP2;ratioP2;P2;SDS_P1;SDS_P2;PMS_P1;PMS_P2;Temp;Humidity;BMP_temperature;BMP_pressure;BME280_temperature;BME280_humidity;BME280_pressure;Samples;Min_cycle;Max_cycle;Signal;HPM_P1;HPM_P2
2023/08/22 00:00:23;;;;;;;17.33;11.45;;;;;;;23.60;75.72;96243.47;2057128;28;20055;-59
2023/08/22 00:01:24;;;;;;;17.88;11.85;;;;;;;23.56;75.72;96253.53;2057451;28;20051;-59
2023/08/22 00:02:26;;;;;;;18.45;12.48;;;;;;;23.52;76.75;96245.06;2066119;28;20426;-60
2023/08/22 00:03:27;;;;;;;16.30;12.07;;;;;;;23.52;76.11;96250.34;2065962;28;20050;-59
2023/08/22 00:04:28;;;;;;;19.90;11.90;;;;;;;23.48;76.38;96253.44;2066124;28;20406;-59
2023/08/22 00:05:29;;;;;;;14.63;11.38;;;;;;;23.45;76.96;96243.97;2066096;28;20057;-58
2023/08/22 00:06:30;;;;;;;17.60;12.60;;;;;;;23.43;77.15;96251.22;2066112;28;20062;-59
2023/08/22 00:07:31;;;;;;;14.68;11.55;;;;;;;23.40;77.25;96246.22;2065753;28;20063;-59
2023/08/22 00:08:32;;;;;;;15.70;11.40;;;;;;;23.37;77.21;96250.97;2066283;28;20050;-59
2023/08/22 00:09:34;;;;;;;13.07;11.02;;;;;;;23.36;77.54;96251.94;2066163;28;20058;-59
2023/08/22 00:10:36;;;;;;;16.65;12.40;;;;;;;23.33;78.05;96251.28;2065519;28;20065;-59
2023/08/22 00:11:37;;;;;;;16.40;12.43;;;;;;;23.30;78.57;96253.34;2066185;28;20054;-59
2023/08/22 00:12:38;;;;;;;19.45;12.65;;;;;;;23.29;78.60;96249.88;2066062;28;20415;-59
2023/08/22 00:13:39;;;;;;;19.33;12.55;;;;;;;23.27;78.76;96256.31;2065398;28;20061;-59
2023/08/22 00:14:41;;;;;;;19.80;12.50;;;;;;;23.24;78.50;96260.06;2064829;28;20061;-57
2023/08/22 00:15:42;;;;;;;15.43;12.05;;;;;;;23.22;78.73;96263.84;2066141;28;20065;-57
2023/08/22 00:16:43;;;;;;;19.15;12.52;;;;;;;23.19;78.71;96253.53;2066149;28;20051;-56
2023/08/22 00:17:44;;;;;;;16.35;12.93;;;;;;;23.14;79.45;96259.25;2066118;28;20379;-57
2023/08/22 00:18:45;;;;;;;21.40;13.30;;;;;;;23.11;79.52;96252.44;2065964;28;20063;-57
2023/08/22 00:19:47;;;;;;;20.67;13.10;;;;;;;23.07;79.75;96261.66;2065997;28;20058;-57
2023/08/22 00:20:48;;;;;;;18.92;12.23;;;;;;;23.05;80.02;96258.31;2065929;28;20050;-57
2023/08/22 00:21:49;;;;;;;15.68;12.35;;;;;;;23.02;79.79;96253.31;2065480;28;20069;-57
2023/08/22 00:22:51;;;;;;;16.88;12.75;;;;;;;23.01;80.37;96262.22;2066101;28;20065;-57
2023/08/22 00:23:52;;;;;;;16.58;12.68;;;;;;;23.00;80.28;96265.84;2066135;28;20051;-57
2023/08/22 00:24:53;;;;;;;19.42;12.38;;;;;;;22.96;80.39;96253.00;2065646;28;20065;-57
2023/08/22 00:25:54;;;;;;;18.95;12.95;;;;;;;22.92;80.84;96257.75;2065925;28;20065;-57
2023/08/22 00:26:55;;;;;;;18.58;13.90;;;;;;;22.87;81.03;96254.69;2065477;28;20065;-57
2023/08/22 00:27:56;;;;;;;19.52;14.45;;;;;;;22.91;80.65;96261.38;2065365;28;20054;-57
2023/08/22 00:28:57;;;;;;;16.08;13.63;;;;;;;22.94;80.77;96260.28;2065707;28;20061;-57
2023/08/22 00:29:59;;;;;;;20.52;13.90;;;;;;;22.94;80.70;96253.16;2065556;28;20053;-57
2023/08/22 00:31:00;;;;;;;17.02;13.80;;;;;;;22.96;80.94;96253.88;2057261;28;20058;-57
2023/08/22 00:32:01;;;;;;;19.58;14.00;;;;;;;22.97;80.76;96255.53;2057115;28;20050;-57
2023/08/22 00:33:02;;;;;;;20.63;13.70;;;;;;;22.99;80.47;96260.69;2057464;28;20061;-57
2023/08/22 00:34:04;;;;;;;19.40;12.85;;;;;;;22.97;80.64;96254.72;2065437;28;20058;-58
2023/08/22 00:35:05;;;;;;;17.75;12.60;;;;;;;22.94;80.77;96254.97;2065538;28;20058;-58
2023/08/22 00:36:06;;;;;;;18.45;13.35;;;;;;;22.89;81.12;96252.75;2065311;28;20050;-58
2023/08/22 00:37:07;;;;;;;15.63;12.98;;;;;;;22.85;81.15;96261.94;2065828;28;20046;-58
2023/08/22 00:38:08;;;;;;;20.00;13.68;;;;;;;22.77;81.62;96253.88;2057377;28;20065;-58
2023/08/22 00:39:10;;;;;;;18.52;12.93;;;;;;;22.73;82.25;96255.16;2057226;28;20066;-58
2023/08/22 00:40:11;;;;;;;14.68;12.35;;;;;;;22.66;82.61;96253.03;2065852;28;20050;-58
2023/08/22 00:41:12;;;;;;;21.25;12.68;;;;;;;22.57;82.53;96251.25;2065923;28;20514;-58
2023/08/22 00:42:13;;;;;;;17.35;13.20;;;;;;;22.50;82.95;96252.78;2056968;28;20050;-57
2023/08/22 00:43:14;;;;;;;15.30;12.68;;;;;;;22.46;83.04;96251.41;2056228;28;20136;-58
2023/08/22 00:44:15;;;;;;;18.10;12.95;;;;;;;22.44;83.66;96254.16;2057020;28;20142;-57
2023/08/22 00:45:16;;;;;;;15.48;12.85;;;;;;;22.37;83.32;96242.50;2057196;28;20051;-58
2023/08/22 00:46:20;;;;;;;18.08;12.50;;;;;;;22.35;83.35;96246.25;2065423;28;20061;-57
2023/08/22 00:47:21;;;;;;;16.33;12.32;;;;;;;22.31;83.52;96242.19;2057116;28;20537;-58
2023/08/22 00:48:22;;;;;;;17.50;12.88;;;;;;;22.33;83.79;96249.03;2041277;29;20056;-57
2023/08/22 00:49:24;;;;;;;17.08;12.88;;;;;;;22.29;83.90;96242.31;2049034;28;20055;-57
2023/08/22 00:50:25;;;;;;;19.98;13.02;;;;;;;22.27;83.88;96241.66;2065765;28;20058;-57
2023/08/22 00:51:26;;;;;;;15.13;12.90;;;;;;;22.26;83.87;96252.34;2056965;28;20062;-57
2023/08/22 00:52:27;;;;;;;14.35;12.75;;;;;;;22.21;84.10;96244.81;2057146;28;20058;-57
2023/08/22 00:53:28;;;;;;;17.85;13.30;;;;;;;22.14;84.37;96252.47;2065755;28;20057;-57
2023/08/22 00:54:30;;;;;;;15.80;12.70;;;;;;;22.14;84.71;96249.00;2056944;28;20081;-57
2023/08/22 00:55:31;;;;;;;15.60;13.38;;;;;;;22.10;84.36;96247.56;2057240;28;20721;-57
2023/08/22 00:56:32;;;;;;;20.15;13.57;;;;;;;22.09;84.72;96249.38;2064801;28;20061;-57
2023/08/22 00:57:34;;;;;;;16.90;13.48;;;;;;;22.05;85.20;96247.16;2057140;28;20066;-57
2023/08/22 00:58:35;;;;;;;16.98;13.95;;;;;;;21.99;85.21;96237.97;2049159;29;20051;-58
2023/08/22 00:59:36;;;;;;;15.85;13.57;;;;;;;22.00;85.29;96248.41;2049282;28;20055;-58
2023/08/22 01:00:37;;;;;;;22.52;14.88;;;;;;;21.98;85.24;96252.16;2057335;28;20360;-57
2023/08/22 01:01:38;;;;;;;17.83;13.65;;;;;;;21.97;85.68;96251.34;2065255;28;20050;-57
2023/08/22 01:02:40;;;;;;;16.05;13.43;;;;;;;21.96;85.34;96254.09;2056514;28;20062;-57
2023/08/22 01:03:41;;;;;;;20.00;14.50;;;;;;;21.93;85.51;96249.09;2056814;28;20085;-57
2023/08/22 01:04:42;;;;;;;16.98;14.18;;;;;;;21.92;85.84;96255.31;2057151;28;20059;-57
2023/08/22 01:05:48;;;;;;;18.20;14.18;;;;;;;21.90;85.63;96252.00;2056593;28;20047;-57
2023/08/22 01:07:08;;;;;;;18.92;14.00;;;;;;;21.88;85.76;96256.59;2048867;29;20503;-57
2023/08/22 01:08:21;;;;;;;18.67;14.27;;;;;;;21.84;85.89;96247.25;2054053;28;20057;-57
2023/08/22 01:09:31;;;;;;;23.17;14.10;;;;;;;21.85;86.24;96260.34;2065316;28;20057;-58
2023/08/22 01:10:35;;;;;;;18.02;14.10;;;;;;;21.82;86.51;96249.22;2065087;28;20069;-57
2023/08/22 01:11:43;;;;;;;18.98;14.38;;;;;;;21.75;86.30;96248.91;2056977;28;20074;-57
2023/08/22 01:12:53;;;;;;;20.13;14.90;;;;;;;21.76;86.50;96254.06;2050090;28;20047;-57
2023/08/22 01:13:54;;;;;;;20.33;14.40;;;;;;;21.74;86.86;96248.06;2050645;28;20050;-57
2023/08/22 01:15:01;;;;;;;17.25;14.35;;;;;;;21.71;86.69;96252.81;2041202;29;20419;-57
2023/08/22 01:16:04;;;;;;;22.63;15.18;;;;;;;21.70;87.28;96259.03;2035506;29;20052;-57
2023/08/22 01:17:05;;;;;;;17.80;14.50;;;;;;;21.66;86.87;96244.44;2049995;28;20062;-58
2023/08/22 01:18:07;;;;;;;21.77;15.50;;;;;;;21.58;87.23;96239.81;2057185;28;20046;-58
2023/08/22 01:19:09;;;;;;;17.92;14.35;;;;;;;21.59;87.51;96239.66;2041195;29;20099;-57
2023/08/22 01:20:12;;;;;;;19.17;14.77;;;;;;;21.55;87.71;96240.91;2041356;29;20055;-57
2023/08/22 01:21:19;;;;;;;19.10;14.93;;;;;;;21.50;87.77;96237.00;2033606;29;20044;-57
2023/08/22 01:22:24;;;;;;;19.90;15.30;;;;;;;21.43;88.38;96244.63;2042945;28;20054;-58
2023/08/22 01:23:25;;;;;;;21.42;15.93;;;;;;;21.40;88.11;96244.06;2050022;28;20062;-57
2023/08/22 01:24:26;;;;;;;19.40;15.10;;;;;;;21.39;88.25;96250.31;2056945;28;20065;-57
2023/08/22 01:25:28;;;;;;;24.75;14.80;;;;;;;21.34;88.26;96242.75;2065162;28;20058;-57
2023/08/22 01:26:29;;;;;;;18.08;15.82;;;;;;;21.31;88.24;96238.56;2057124;28;20062;-58
2023/08/22 01:27:31;;;;;;;19.88;15.68;;;;;;;21.31;88.26;96243.88;2048660;28;20063;-57
2023/08/22 01:28:50;;;;;;;20.02;16.42;;;;;;;21.29;88.15;96248.44;2041399;29;20056;-57
2023/08/22 01:29:58;;;;;;;19.60;15.77;;;;;;;21.24;88.31;96236.59;2053798;28;20062;-58
2023/08/22 01:31:02;;;;;;;20.77;17.27;;;;;;;21.21;87.97;96228.94;2057308;28;20050;-57
2023/08/22 01:32:11;;;;;;;21.48;15.98;;;;;;;21.24;88.07;96242.72;2056400;28;20051;-57
2023/08/22 01:33:21;;;;;;;19.08;16.55;;;;;;;21.23;88.30;96238.41;2057647;28;20062;-57
2023/08/22 01:34:31;;;;;;;20.00;16.17;;;;;;;21.20;88.62;96237.81;2065494;28;20382;-57
2023/08/22 01:35:32;;;;;;;19.92;16.88;;;;;;;21.19;88.28;96238.78;2064940;28;20058;-57
2023/08/22 01:36:33;;;;;;;22.35;16.02;;;;;;;21.19;88.71;96234.34;2048937;29;20054;-57
2023/08/22 01:37:34;;;;;;;20.23;15.68;;;;;;;21.17;89.00;96231.03;2041218;28;20063;-57
2023/08/22 01:38:35;;;;;;;22.60;16.65;;;;;;;21.10;88.63;96225.41;2056955;28;20058;-57
2023/08/22 01:39:37;;;;;;;25.33;15.70;;;;;;;21.11;88.86;96236.81;2065238;28;20499;-57
2023/08/22 01:40:38;;;;;;;22.17;16.30;;;;;;;21.10;89.37;96224.59;2057077;28;20054;-57
2023/08/22 01:41:39;;;;;;;20.75;16.83;;;;;;;21.08;89.62;96234.44;2048631;28;20055;-57
2023/08/22 01:42:42;;;;;;;23.40;18.42;;;;;;;21.03;88.97;96229.53;2032897;29;20056;-57
2023/08/22 01:43:43;;;;;;;22.33;17.90;;;;;;;20.99;88.92;96224.66;2041010;28;20056;-58
2023/08/22 01:44:44;;;;;;;20.00;17.83;;;;;;;20.97;89.03;96230.06;2064408;28;20117;-57
2023/08/22 01:45:46;;;;;;;21.65;17.50;;;;;;;20.91;89.56;96227.97;2065019;28;20059;-56
2023/08/22 01:46:47;;;;;;;23.42;17.48;;;;;;;20.89;89.52;96227.25;2065195;28;20062;-57
2023/08/22 01:47:48;;;;;;;23.35;18.33;;;;;;;20.89;89.16;96232.53;2065073;28;20061;-57
2023/08/22 01:48:50;;;;;;;21.88;17.63;;;;;;;20.86;89.42;96230.16;2056925;28;20416;-57
2023/08/22 01:49:51;;;;;;;24.10;17.70;;;;;;;20.86;89.42;96230.16;2056541;28;20070;-57
2023/08/22 01:50:52;;;;;;;19.73;16.95;;;;;;;20.85;89.34;96233.75;2065197;28;20058;-57
2023/08/22 01:51:55;;;;;;;24.60;17.48;;;;;;;20.82;89.82;96231.38;2065718;28;20058;-57
2023/08/22 01:52:57;;;;;;;20.95;17.65;;;;;;;20.80;89.90;96228.88;2056906;28;20055;-57
2023/08/22 01:53:59;;;;;;;23.73;18.60;;;;;;;20.78;89.93;96233.44;2057131;28;20054;-57
2023/08/22 01:55:00;;;;;;;21.35;17.83;;;;;;;20.77;89.86;96233.56;2066321;28;20149;-58
2023/08/22 01:56:01;;;;;;;22.52;17.75;;;;;;;20.69;89.95;96228.94;2067417;28;20050;-57
2023/08/22 01:57:02;;;;;;;23.20;18.23;;;;;;;20.72;90.08;96227.84;2058512;28;20062;-57
2023/08/22 01:58:04;;;;;;;21.63;18.23;;;;;;;20.66;90.30;96230.03;2050281;29;20051;-59
2023/08/22 01:59:05;;;;;;;23.65;17.67;;;;;;;20.69;90.25;96234.22;2049856;28;20484;-57
2023/08/22 02:00:07;;;;;;;22.35;17.23;;;;;;;20.70;90.03;96235.88;2050142;29;20055;-58
2023/08/22 02:01:13;;;;;;;21.20;17.90;;;;;;;20.69;90.26;96236.88;2059471;28;20054;-57
2023/08/22 02:02:14;;;;;;;20.40;18.23;;;;;;;20.68;89.76;96237.81;2057962;28;20058;-58
2023/08/22 02:03:15;;;;;;;22.30;18.13;;;;;;;20.63;90.27;96232.91;2058559;28;20530;-57
2023/08/22 02:04:16;;;;;;;22.65;17.73;;;;;;;20.63;90.11;96232.91;2058253;28;20055;-58
2023/08/22 02:05:18;;;;;;;19.67;17.77;;;;;;;20.61;90.59;96231.38;2050212;29;20059;-57
2023/08/22 02:06:19;;;;;;;25.20;18.45;;;;;;;20.54;90.76;96225.78;2058373;28;20057;-57
2023/08/22 02:07:20;;;;;;;20.67;16.85;;;;;;;20.53;90.23;96229.34;2057853;28;20436;-57
2023/08/22 02:08:21;;;;;;;23.80;18.83;;;;;;;20.49;90.24;96231.41;2066746;28;20058;-57
2023/08/22 02:09:22;;;;;;;19.92;17.85;;;;;;;20.45;90.33;96230.00;2066584;28;20066;-57
2023/08/22 02:10:24;;;;;;;22.02;18.10;;;;;;;20.40;90.27;96233.97;2066993;28;20054;-57
2023/08/22 02:11:25;;;;;;;21.77;17.73;;;;;;;20.35;90.56;96233.53;2066366;28;20513;-57
2023/08/22 02:12:26;;;;;;;24.92;18.30;;;;;;;20.32;91.02;96228.50;2066222;28;20054;-57
2023/08/22 02:13:27;;;;;;;21.63;17.67;;;;;;;20.30;90.93;96225.97;2057943;28;20051;-57
2023/08/22 02:14:28;;;;;;;20.08;17.98;;;;;;;20.28;91.04;96228.72;2058192;28;20061;-57
2023/08/22 02:15:33;;;;;;;24.02;18.45;;;;;;;20.25;91.25;96223.72;2066247;28;20513;-58
2023/08/22 02:16:36;;;;;;;27.08;18.13;;;;;;;20.26;91.12;96229.81;2058600;28;20057;-57
2023/08/22 02:17:38;;;;;;;22.33;18.52;;;;;;;20.20;91.10;96214.50;2058665;28;20047;-58
2023/08/22 02:18:39;;;;;;;20.65;18.10;;;;;;;20.25;91.28;96231.63;2066964;28;20430;-57
2023/08/22 02:19:40;;;;;;;21.45;18.08;;;;;;;20.24;91.22;96226.50;2058574;28;20055;-58
2023/08/22 02:20:42;;;;;;;25.23;18.13;;;;;;;20.20;91.33;96225.06;2058459;28;20063;-57
2023/08/22 02:21:44;;;;;;;20.17;17.98;;;;;;;20.24;91.28;96232.59;2066289;28;20078;-58
2023/08/22 02:22:45;;;;;;;22.52;18.38;;;;;;;20.24;91.45;96229.13;2066977;28;20058;-58
2023/08/22 02:23:46;;;;;;;21.10;17.63;;;;;;;20.20;91.34;96222.44;2066177;28;20054;-58
2023/08/22 02:24:47;;;;;;;23.42;17.23;;;;;;;20.24;91.33;96223.88;2066535;28;20398;-57
2023/08/22 02:25:48;;;;;;;23.10;18.17;;;;;;;20.23;91.29;96222.16;2066960;28;20050;-58
2023/08/22 02:26:50;;;;;;;21.83;18.00;;;;;;;20.22;91.58;96225.78;2049665;29;20132;-57
2023/08/22 02:27:51;;;;;;;24.67;18.83;;;;;;;20.21;91.50;96226.75;2050259;28;20062;-57
2023/08/22 02:28:53;;;;;;;19.15;17.15;;;;;;;20.21;91.66;96219.69;2066845;28;20103;-57
2023/08/22 02:29:54;;;;;;;22.08;17.83;;;;;;;20.21;91.61;96224.13;2057900;28;20051;-57
2023/08/22 02:30:55;;;;;;;24.60;17.80;;;;;;;20.16;91.66;96221.03;2057679;28;20055;-58
2023/08/22 02:31:57;;;;;;;22.77;17.50;;;;;;;20.17;91.72;96215.59;2058168;28;20066;-58
2023/08/22 02:32:58;;;;;;;21.52;18.92;;;;;;;20.16;91.88;96218.38;2058232;28;20510;-58
2023/08/22 02:33:59;;;;;;;25.45;18.65;;;;;;;20.16;92.50;96215.75;2066455;28;20054;-58
2023/08/22 02:35:00;;;;;;;20.10;18.00;;;;;;;20.12;92.04;96212.50;2066183;28;20050;-58
2023/08/22 02:36:01;;;;;;;22.50;17.58;;;;;;;20.12;92.32;96220.41;2066635;28;20061;-57
2023/08/22 02:37:02;;;;;;;22.85;18.50;;;;;;;20.09;91.98;96218.03;2057842;28;20051;-58
2023/08/22 02:38:04;;;;;;;23.02;18.27;;;;;;;20.07;92.00;96212.03;2058417;28;20062;-58
2023/08/22 02:39:08;;;;;;;22.05;17.88;;;;;;;20.02;92.28;96211.56;2066337;28;20046;-58
2023/08/22 02:40:11;;;;;;;26.65;19.20;;;;;;;19.94;92.46;96211.38;2065903;28;20062;-58
2023/08/22 02:41:12;;;;;;;23.15;18.55;;;;;;;19.95;92.39;96220.97;2066236;28;20057;-58
2023/08/22 02:42:13;;;;;;;22.05;18.38;;;;;;;19.96;92.50;96215.56;2057519;28;20066;-58
2023/08/22 02:43:14;;;;;;;21.70;17.75;;;;;;;19.99;92.39;96219.75;2057261;28;20043;-58
2023/08/22 02:44:15;;;;;;;26.25;18.65;;;;;;;19.97;92.10;96216.41;2057831;28;20062;-58
2023/08/22 02:45:17;;;;;;;26.27;18.67;;;;;;;19.96;92.38;96217.34;2058158;28;20047;-58
2023/08/22 02:46:18;;;;;;;25.40;19.50;;;;;;;19.93;92.41;96218.44;2066705;28;20050;-58
2023/08/22 02:47:19;;;;;;;21.85;18.83;;;;;;;19.89;92.67;96214.41;2066104;28;20050;-57
2023/08/22 02:48:20;;;;;;;24.30;19.25;;;;;;;19.86;92.92;96213.78;2066367;28;20054;-58
2023/08/22 02:49:23;;;;;;;22.67;19.23;;;;;;;19.87;93.01;96218.94;2057113;28;20050;-58
2023/08/22 02:50:24;;;;;;;22.48;18.30;;;;;;;19.86;92.94;96211.16;2050271;28;20067;-57
2023/08/22 02:51:25;;;;;;;22.92;19.50;;;;;;;19.88;92.84;96209.25;2057983;28;20055;-57
2023/08/22 02:52:26;;;;;;;24.58;18.35;;;;;;;19.88;92.66;96217.16;2065485;28;20057;-57
2023/08/22 02:53:27;;;;;;;23.75;18.60;;;;;;;19.88;92.77;96211.88;2065667;28;20054;-57
2023/08/22 02:54:28;;;;;;;25.58;19.27;;;;;;;19.82;93.01;96208.78;2066430;28;20054;-58
2023/08/22 02:55:31;;;;;;;23.38;19.70;;;;;;;19.81;93.15;96211.53;2066093;28;20065;-58
2023/08/22 02:56:32;;;;;;;24.23;19.20;;;;;;;19.79;93.10;96211.66;2066205;28;20054;-57
2023/08/22 02:57:33;;;;;;;26.20;19.08;;;;;;;19.79;93.19;96205.56;2066551;28;20065;-58
2023/08/22 02:58:34;;;;;;;20.88;18.48;;;;;;;19.74;93.46;96211.19;2065689;28;20395;-58
2023/08/22 02:59:36;;;;;;;26.63;19.77;;;;;;;19.74;93.19;96205.91;2065522;28;20061;-58
2023/08/22 03:00:37;;;;;;;20.08;17.85;;;;;;;19.73;93.09;96200.78;2057718;28;20057;-58
2023/08/22 03:01:39;;;;;;;22.67;18.60;;;;;;;19.72;93.12;96204.38;2057768;28;20062;-58
2023/08/22 03:02:40;;;;;;;22.48;19.02;;;;;;;19.71;93.30;96210.59;2065847;28;20406;-57
2023/08/22 03:03:43;;;;;;;21.85;19.20;;;;;;;19.66;93.15;96199.56;2065352;28;20463;-58
2023/08/22 03:04:44;;;;;;;22.63;20.08;;;;;;;19.68;93.41;96202.97;2057112;28;20054;-58
2023/08/22 03:05:45;;;;;;;22.15;18.98;;;;;;;19.70;93.18;96201.00;2049317;28;20063;-58
2023/08/22 03:06:46;;;;;;;24.33;19.00;;;;;;;19.67;93.37;96207.38;2056724;28;20536;-58
2023/08/22 03:07:48;;;;;;;24.77;20.60;;;;;;;19.65;93.10;96201.38;2065423;28;20054;-58
2023/08/22 03:08:49;;;;;;;24.67;20.40;;;;;;;19.65;93.43;96200.53;2057376;28;20081;-58
2023/08/22 03:09:51;;;;;;;28.48;20.70;;;;;;;19.63;93.26;96207.72;2057566;28;20471;-58
2023/08/22 03:10:58;;;;;;;22.95;19.55;;;;;;;19.64;93.33;96212.03;2057636;28;20066;-58
2023/08/22 03:11:59;;;;;;;24.02;19.80;;;;;;;19.65;92.84;96204.00;2050171;28;20047;-58
2023/08/22 03:13:01;;;;;;;24.10;19.77;;;;;;;19.62;93.23;96209.53;2057637;28;20046;-58
2023/08/22 03:14:04;;;;;;;24.50;20.25;;;;;;;19.64;93.41;96198.84;2057796;28;20059;-58
2023/08/22 03:15:05;;;;;;;21.80;19.63;;;;;;;19.62;93.39;96209.53;2057723;28;20058;-58
2023/08/22 03:16:12;;;;;;;29.88;20.80;;;;;;;19.59;93.36;96197.44;2066131;28;20049;-58
2023/08/22 03:17:17;;;;;;;23.90;20.52;;;;;;;19.57;93.62;96201.16;2057885;28;20051;-58
2023/08/22 03:18:19;;;;;;;23.13;19.92;;;;;;;19.56;93.40;96202.94;2049909;28;20050;-58
2023/08/22 03:19:21;;;;;;;23.33;20.08;;;;;;;19.56;93.49;96202.94;2057501;28;20438;-58
2023/08/22 03:20:25;;;;;;;24.45;19.98;;;;;;;19.55;93.23;96203.91;2057890;28;20058;-57
2023/08/22 03:21:26;;;;;;;26.33;20.15;;;;;;;19.53;93.41;96203.19;2049830;29;20062;-58
2023/08/22 03:22:28;;;;;;;26.27;20.70;;;;;;;19.50;93.62;96203.44;2057894;28;20412;-57
2023/08/22 03:23:29;;;;;;;24.58;20.35;;;;;;;19.48;93.82;96204.50;2057858;28;20055;-58
2023/08/22 03:24:31;;;;;;;23.38;20.58;;;;;;;19.48;93.89;96207.97;2049867;28;20519;-59
2023/08/22 03:25:33;;;;;;;24.33;21.83;;;;;;;19.46;94.04;96207.28;2057802;28;20063;-59
2023/08/22 03:26:34;;;;;;;24.50;20.20;;;;;;;19.44;94.12;96203.09;2058003;28;20066;-59
2023/08/22 03:27:37;;;;;;;22.98;19.75;;;;;;;19.46;94.09;96201.16;2049885;28;20051;-58
2023/08/22 03:28:38;;;;;;;25.02;20.60;;;;;;;19.44;94.42;96206.56;2049520;29;20427;-58
2023/08/22 03:29:40;;;;;;;25.45;20.27;;;;;;;19.41;94.37;96198.91;2057737;28;20082;-58
2023/08/22 03:30:41;;;;;;;25.15;20.60;;;;;;;19.43;94.13;96199.59;2057985;28;20059;-58
2023/08/22 03:31:42;;;;;;;23.20;20.55;;;;;;;19.42;94.06;96211.09;2057707;28;20062;-58
2023/08/22 03:32:43;;;;;;;25.80;21.02;;;;;;;19.35;93.82;96196.72;2057387;28;20557;-58
2023/08/22 03:33:44;;;;;;;27.60;21.42;;;;;;;19.36;93.49;96208.97;2057728;28;20059;-58
2023/08/22 03:34:45;;;;;;;25.05;21.52;;;;;;;19.32;93.51;96210.97;2065080;28;20058;-57
2023/08/22 03:35:47;;;;;;;26.80;19.88;;;;;;;19.32;93.29;96204.88;2057630;28;20437;-58
2023/08/22 03:36:48;;;;;;;24.88;20.55;;;;;;;19.31;92.80;96209.31;2049953;28;20071;-57
2023/08/22 03:37:49;;;;;;;22.52;20.13;;;;;;;19.28;92.53;96203.47;2057201;28;20431;-57
2023/08/22 03:38:51;;;;;;;23.90;19.75;;;;;;;19.24;92.54;96204.66;2057660;28;20111;-57
2023/08/22 03:39:52;;;;;;;27.60;20.73;;;;;;;19.23;92.46;96205.63;2057639;28;20065;-58
2023/08/22 03:40:54;;;;;;;25.25;20.90;;;;;;;19.18;92.43;96208.59;2057723;28;20554;-57
2023/08/22 03:41:55;;;;;;;25.00;20.10;;;;;;;19.14;92.32;96202.75;2057848;28;20054;-57
2023/08/22 03:42:56;;;;;;;27.52;21.50;;;;;;;19.14;92.52;96204.56;2049666;29;20427;-57
2023/08/22 03:43:57;;;;;;;24.55;20.50;;;;;;;19.14;92.68;96209.81;2057471;28;20062;-59
2023/08/22 03:44:58;;;;;;;22.73;20.05;;;;;;;19.12;92.59;96212.56;2057754;28;20059;-57
2023/08/22 03:45:59;;;;;;;24.02;21.35;;;;;;;19.08;92.83;96215.53;2057180;28;20055;-57
2023/08/22 03:47:00;;;;;;;22.15;19.65;;;;;;;19.09;92.94;96211.97;2049720;29;20051;-57
2023/08/22 03:48:18;;;;;;;22.85;20.15;;;;;;;19.03;93.00;96205.38;2057611;28;20491;-57
2023/08/22 03:49:19;;;;;;;22.60;20.20;;;;;;;19.03;93.13;96212.41;2056835;28;20053;-57
2023/08/22 03:50:20;;;;;;;29.42;21.13;;;;;;;19.02;93.35;96214.22;2057561;28;20061;-58
2023/08/22 03:51:21;;;;;;;27.40;22.00;;;;;;;18.98;93.38;96204.91;2049644;29;20047;-57
2023/08/22 03:52:23;;;;;;;22.42;20.10;;;;;;;19.00;93.49;96210.84;2057947;28;20121;-58
2023/08/22 03:53:24;;;;;;;26.27;21.23;;;;;;;19.02;93.48;96219.47;2065619;28;20057;-56
2023/08/22 03:54:25;;;;;;;25.00;20.17;;;;;;;19.01;93.28;96220.44;2057556;28;20577;-58
2023/08/22 03:55:26;;;;;;;26.60;20.80;;;;;;;18.97;93.36;96219.00;2057616;28;20058;-57
2023/08/22 03:56:28;;;;;;;24.65;21.85;;;;;;;18.97;93.09;96218.16;2065312;28;20057;-57
2023/08/22 03:57:29;;;;;;;24.77;21.00;;;;;;;18.94;93.43;96209.53;2057527;28;20480;-58
2023/08/22 03:58:30;;;;;;;25.00;21.92;;;;;;;18.95;93.52;96218.28;2057530;28;20063;-58
2023/08/22 03:59:33;;;;;;;30.35;22.02;;;;;;;18.93;93.48;96212.31;2057395;28;20054;-58
2023/08/22 04:00:35;;;;;;;23.55;19.73;;;;;;;18.95;93.38;96218.28;2056677;28;20062;-58
2023/08/22 04:01:36;;;;;;;27.10;21.00;;;;;;;18.94;93.21;96222.69;2057510;28;20499;-59
2023/08/22 04:02:37;;;;;;;26.30;21.67;;;;;;;18.94;93.79;96224.50;2066175;28;20069;-58
2023/08/22 04:03:38;;;;;;;28.80;22.23;;;;;;;18.92;93.46;96219.38;2057311;28;20058;-58
2023/08/22 04:04:39;;;;;;;25.55;21.38;;;;;;;18.89;93.97;96216.94;2057241;28;20058;-59
2023/08/22 04:05:42;;;;;;;27.25;21.90;;;;;;;18.89;93.70;96221.38;2057418;28;20050;-58
2023/08/22 04:06:43;;;;;;;26.23;21.23;;;;;;;18.88;93.67;96224.97;2057382;28;20057;-59
2023/08/22 04:07:44;;;;;;;26.48;21.50;;;;;;;18.83;93.80;96225.31;2065088;28;20059;-59
2023/08/22 04:08:45;;;;;;;25.95;21.83;;;;;;;18.81;94.21;96219.34;2066001;28;20065;-59
2023/08/22 04:09:46;;;;;;;25.45;21.55;;;;;;;18.81;93.95;96224.59;2065082;28;20061;-58
2023/08/22 04:10:48;;;;;;;26.17;20.58;;;;;;;18.76;94.33;96226.75;2064890;28;20434;-59
2023/08/22 04:11:49;;;;;;;28.38;22.20;;;;;;;18.78;94.03;96224.84;2057425;28;20051;-59
2023/08/22 04:12:50;;;;;;;26.98;22.40;;;;;;;18.78;94.08;96232.72;2057607;28;20565;-59
2023/08/22 04:13:51;;;;;;;28.98;23.17;;;;;;;18.76;94.08;96233.81;2065572;28;20050;-59
2023/08/22 04:14:53;;;;;;;28.35;21.00;;;;;;;18.73;94.13;96243.56;2065406;28;20062;-58
2023/08/22 04:15:56;;;;;;;27.63;21.60;;;;;;;18.73;94.39;96238.31;2065610;28;20054;-59
2023/08/22 04:16:57;;;;;;;24.55;21.10;;;;;;;18.75;94.25;96240.03;2065403;28;20046;-59
2023/08/22 04:17:58;;;;;;;26.50;22.02;;;;;;;18.76;94.59;96242.53;2066040;28;20046;-59
2023/08/22 04:18:59;;;;;;;25.60;22.25;;;;;;;18.78;94.15;96243.25;2057420;28;20471;-59
2023/08/22 04:20:01;;;;;;;23.65;21.05;;;;;;;18.78;94.25;96239.78;2057354;28;20062;-59
2023/08/22 04:21:03;;;;;;;27.35;21.73;;;;;;;18.78;94.29;96239.78;2057385;28;20058;-59
2023/08/22 04:22:04;;;;;;;25.33;21.42;;;;;;;18.79;94.43;96246.72;2057368;28;20051;-59
2023/08/22 04:23:05;;;;;;;28.67;20.70;;;;;;;18.80;94.55;96240.53;2057345;28;20055;-59
2023/08/22 04:24:07;;;;;;;27.25;21.45;;;;;;;18.80;94.29;96248.41;2049374;29;20059;-59
2023/08/22 04:25:09;;;;;;;25.95;21.10;;;;;;;18.80;94.38;96245.78;2057418;28;20066;-59
2023/08/22 04:26:10;;;;;;;28.92;20.60;;;;;;;18.82;94.69;96246.47;2064771;28;20049;-59
2023/08/22 04:27:11;;;;;;;26.02;20.95;;;;;;;18.80;94.57;96243.16;2057013;28;20054;-59
2023/08/22 04:28:13;;;;;;;24.17;21.35;;;;;;;18.81;94.77;96245.66;2057052;28;20050;-59
2023/08/22 04:29:14;;;;;;;28.02;20.92;;;;;;;18.81;94.64;96239.56;2056460;28;20055;-59
2023/08/22 04:30:15;;;;;;;22.98;20.33;;;;;;;18.80;94.40;96238.72;2057334;28;20054;-58
2023/08/22 04:31:16;;;;;;;25.63;22.20;;;;;;;18.85;94.12;96241.84;2057332;28;20062;-59
2023/08/22 04:32:17;;;;;;;29.65;21.88;;;;;;;18.85;94.13;96236.56;2056623;28;20061;-58
2023/08/22 04:33:19;;;;;;;26.08;20.92;;;;;;;18.90;94.31;96236.22;2049117;28;20051;-59
2023/08/22 04:34:20;;;;;;;27.63;20.75;;;;;;;18.95;94.04;96236.69;2056993;28;20430;-59
2023/08/22 04:35:27;;;;;;;30.25;20.33;;;;;;;19.00;93.83;96234.53;2057442;28;20058;-59
2023/08/22 04:36:29;;;;;;;27.60;20.13;;;;;;;18.99;93.21;96238.16;2057156;28;20066;-59
2023/08/22 04:37:31;;;;;;;22.35;19.35;;;;;;;19.06;93.04;96236.72;2056952;28;20062;-59
2023/08/22 04:38:32;;;;;;;23.98;19.80;;;;;;;19.09;92.44;96238.28;2049501;29;20062;-59
2023/08/22 04:39:37;;;;;;;23.92;18.05;;;;;;;19.12;92.30;96238.88;2049247;28;20078;-59
2023/08/22 04:40:59;;;;;;;23.30;17.98;;;;;;;19.18;91.93;96240.19;2052089;28;20057;-59
2023/08/22 04:42:08;;;;;;;22.85;17.77;;;;;;;19.23;91.72;96239.84;2050315;28;20054;-59
2023/08/22 04:43:30;;;;;;;23.27;18.83;;;;;;;19.23;90.75;96240.66;2046363;28;20054;-59
2023/08/22 04:44:31;;;;;;;23.48;18.10;;;;;;;19.26;90.92;96239.59;2056062;28;20416;-59
2023/08/22 04:45:33;;;;;;;22.77;19.20;;;;;;;19.34;90.77;96231.94;2049078;29;20062;-59